Sawyer International Airport
KSAW : now visible

Airfield :











YOU CAN JOIN US ON...

 
LOGIN :

Register | Disclaimer

   EN    FR    IT 

 









Legend :    VFR   Marginal VFR   IFR   Intensive IFR   Very Intensive IFR
Visi :
Ceiling :
>= 8 km
>= 3000ft
5 to 8 km
1000 to 3000 ft
1500m to 5 km
500 to 1000 ft
800 to 1500m
200 to 500 ft
< 800m
< 200 ft
Symbols :   Thunderstorms  Fog  Heavy snow  Heavy precipitations  Wind > 20 kt







- Airport Elevation : 1221 ft


KSAW - Sawyer International

CURRENT METAR :
  • 220047Z 19012KT 8SM BKN006 BKN027 OVC033 21/20 A2984

EXPIRED METARs :
  • 212347Z 21011KT 10SM BKN008 BKN015 OVC028 22/20 A2984
  • 212247Z 19016G22KT 8SM BKN014 23/20 A2984

TAF KSAW
Valid from the 22 at 00:00 until the 23 at 00:00 UTC


212334Z 2200/2224 20011KT P6SM VCSH BKN015
FM220900 21008KT P6SM BKN012
FM221300 21006KT P6SM BKN025
FM221400 23007KT P6SM BKN050
FM221600 24007KT P6SM BKN090
No reported NOTAMs for that airfield.



MET'MAP, your aeronautical weather chart ! - Copyright ORBIFLY December 2007 - Disclaimer

ORBIFLY MET'MAP TEAM :

Programming & Development : Alexandra Zaïnal
Concept & Development : Baudouin d'Aumeries
Co-Development & Prog : Marc-Olivier Méhu
Technical & hardware support : Manuel Goepfert

Contact : metmap@orbifly.com




SOURCES & CREDITS :

   NOAA       Earth
Advisory